Thorp, Washington
Current Conditions -  °F | °C
As of 11:53 AM on Friday 28 Nov 2014 (Local Time) from KELN Reporting Station
Overcast Overcast  
Wind Chill: 45°   Ceiling: 6500
Heat Index: 48°   Visibility: 10mi
Dew Point: 42°   Wind: 6mph
Humidity: 80%   Direction: 310°NW
Pressure: 29.41"   Gusts: NA
Location:  47.07°N, 120.67°W
Report Text: KELN 281953Z AUTO 31005KT 10SM OVC065 09/06 A2941 RMK AO2 SLP963 T00890056 $
Loading
Personal Weather Stations






























Interactive Weather Map New forecast layout! Learn more

10-Day Weather Forecast

Advertisements
Track Severe Weather on mobile